createdAt,value
2022-12-31T00:01:32.911Z,97.27
2022-12-31T00:04:35.896Z,97.03
2022-12-31T00:10:42.191Z,97.09
2022-12-31T00:13:46.539Z,96.88
2022-12-31T00:16:49.298Z,97.09
2022-12-31T00:19:53.392Z,97.09
2022-12-31T00:22:56.143Z,97.01
2022-12-31T00:26:05.383Z,96.80
2022-12-31T00:29:08.143Z,97.00
2022-12-31T00:32:10.936Z,96.79
2022-12-31T00:35:13.760Z,96.74
2022-12-31T00:38:16.469Z,96.47
2022-12-31T00:41:21.946Z,96.71
2022-12-31T00:44:24.688Z,96.90
2022-12-31T00:47:27.440Z,96.66
2022-12-31T00:50:30.148Z,96.36
2022-12-31T00:53:33.176Z,96.39
2022-12-31T00:56:37.238Z,96.79
2022-12-31T00:59:40.053Z,96.76
2022-12-31T01:02:42.892Z,96.65
2022-12-31T01:05:46.096Z,96.88
2022-12-31T01:08:50.482Z,97.16
2022-12-31T01:11:55.171Z,97.21
2022-12-31T01:14:58.212Z,97.32
2022-12-31T01:18:03.272Z,97.29
2022-12-31T01:21:07.620Z,97.16
2022-12-31T01:24:11.508Z,97.44
2022-12-31T01:27:15.561Z,97.43
2022-12-31T01:30:18.369Z,97.33
2022-12-31T01:33:21.139Z,97.45
2022-12-31T01:36:26.742Z,97.04
2022-12-31T01:39:29.497Z,97.12
2022-12-31T01:42:33.567Z,97.02
2022-12-31T01:45:36.354Z,96.39
2022-12-31T01:48:39.331Z,96.75
2022-12-31T01:51:44.497Z,96.31
2022-12-31T01:54:56.858Z,95.95
2022-12-31T01:58:06.248Z,95.87
2022-12-31T02:01:11.139Z,95.48
2022-12-31T02:04:16.349Z,95.48
2022-12-31T02:07:23.175Z,95.17
2022-12-31T02:10:26.658Z,95.43
2022-12-31T02:13:31.026Z,94.65
2022-12-31T02:16:47.265Z,94.36
2022-12-31T02:20:20.102Z,94.18
2022-12-31T02:23:44.912Z,93.65
2022-12-31T02:27:11.484Z,93.28
2022-12-31T02:30:18.076Z,92.82
2022-12-31T02:33:31.592Z,92.50
2022-12-31T02:36:37.936Z,92.10
2022-12-31T02:39:47.593Z,92.20
2022-12-31T02:42:55.286Z,92.05
2022-12-31T02:46:14.397Z,91.70
2022-12-31T02:49:23.782Z,91.46
2022-12-31T02:52:44.387Z,91.07
2022-12-31T02:56:02.023Z,91.17
2022-12-31T02:59:29.258Z,90.85
2022-12-31T03:03:01.886Z,90.80
2022-12-31T03:06:07.272Z,90.57
2022-12-31T03:09:13.702Z,90.63
2022-12-31T03:12:34.904Z,90.50
2022-12-31T03:15:38.938Z,90.46
2022-12-31T03:19:02.061Z,90.27
2022-12-31T03:22:22.249Z,90.41
2022-12-31T03:25:39.147Z,89.97
2022-12-31T03:28:47.621Z,89.71
2022-12-31T03:31:55.796Z,89.56
2022-12-31T03:34:59.851Z,89.66
2022-12-31T03:38:03.316Z,89.57
2022-12-31T03:41:06.313Z,89.61
2022-12-31T03:44:11.133Z,89.40
2022-12-31T03:47:14.361Z,89.15
2022-12-31T03:50:22.791Z,89.22
2022-12-31T03:53:25.480Z,89.29
2022-12-31T03:56:31.227Z,89.57
2022-12-31T03:59:33.967Z,89.49
2022-12-31T04:02:37.295Z,89.48
2022-12-31T04:05:42.241Z,89.69
2022-12-31T04:08:47.053Z,89.53
2022-12-31T04:11:49.793Z,89.65
2022-12-31T04:14:59.030Z,90.01
2022-12-31T04:18:01.968Z,89.47
2022-12-31T04:21:07.119Z,89.53
2022-12-31T04:24:12.292Z,89.46
2022-12-31T04:27:15.715Z,89.31
2022-12-31T04:30:21.480Z,89.04
2022-12-31T04:33:25.664Z,89.17
2022-12-31T04:36:32.355Z,89.19
2022-12-31T04:39:35.036Z,88.77
2022-12-31T04:42:38.472Z,88.74
2022-12-31T04:45:41.153Z,88.43
2022-12-31T04:48:44.077Z,88.82
2022-12-31T04:51:48.138Z,88.17
2022-12-31T04:54:51.174Z,88.48
2022-12-31T04:57:55.758Z,88.41
2022-12-31T05:00:58.601Z,88.57
2022-12-31T05:04:02.033Z,88.30
2022-12-31T05:07:08.344Z,88.30
2022-12-31T05:10:13.159Z,88.32
2022-12-31T05:13:16.884Z,88.02
2022-12-31T05:16:19.816Z,88.34
2022-12-31T05:19:28.557Z,88.39
2022-12-31T05:22:35.768Z,88.06
2022-12-31T05:25:42.653Z,88.04
2022-12-31T05:28:45.818Z,87.86
2022-12-31T05:31:48.443Z,88.13
2022-12-31T05:34:55.111Z,87.80
2022-12-31T05:38:02.786Z,87.91
2022-12-31T05:41:07.368Z,87.84
2022-12-31T05:44:13.179Z,87.93
2022-12-31T05:47:16.596Z,87.55
2022-12-31T05:50:19.474Z,87.92
2022-12-31T05:53:23.730Z,87.82
2022-12-31T05:56:26.352Z,87.85
2022-12-31T05:59:31.246Z,87.71
2022-12-31T06:02:36.208Z,87.60
2022-12-31T06:05:43.214Z,87.57
2022-12-31T06:08:50.325Z,87.32
2022-12-31T06:11:52.947Z,86.76
2022-12-31T06:14:59.791Z,86.31
2022-12-31T06:18:06.029Z,86.40
2022-12-31T06:21:15.856Z,86.48
2022-12-31T06:24:20.023Z,85.89
2022-12-31T06:27:25.848Z,85.70
2022-12-31T06:30:28.538Z,85.67
2022-12-31T06:33:31.390Z,85.41
2022-12-31T06:36:34.840Z,85.15
2022-12-31T06:39:41.833Z,85.21
2022-12-31T06:42:44.896Z,84.81
2022-12-31T06:45:53.791Z,85.09
2022-12-31T06:48:59.269Z,84.93
2022-12-31T06:52:02.451Z,84.96
2022-12-31T06:55:08.436Z,84.92
2022-12-31T06:58:13.454Z,84.49
2022-12-31T07:01:33.825Z,84.22
2022-12-31T07:05:21.470Z,84.89
2022-12-31T07:08:37.980Z,84.82
2022-12-31T07:11:55.909Z,84.28
2022-12-31T07:15:16.864Z,84.79
2022-12-31T07:18:38.019Z,85.06
2022-12-31T07:21:42.295Z,84.91
2022-12-31T07:24:47.904Z,85.28
2022-12-31T07:28:05.319Z,85.47
2022-12-31T07:31:14.244Z,85.73
2022-12-31T07:34:23.339Z,85.59
2022-12-31T07:37:38.712Z,85.43
2022-12-31T07:40:57.530Z,85.51
2022-12-31T07:44:11.049Z,85.52
2022-12-31T07:47:21.992Z,84.75
2022-12-31T07:50:25.495Z,84.25
2022-12-31T07:53:28.820Z,84.24
2022-12-31T07:56:31.763Z,83.71
2022-12-31T07:59:48.357Z,83.75
2022-12-31T08:03:12.688Z,84.00
2022-12-31T08:06:25.600Z,83.54
2022-12-31T08:09:44.104Z,83.69
2022-12-31T08:12:50.355Z,82.88
2022-12-31T08:16:03.596Z,82.98
2022-12-31T08:19:07.124Z,82.58
2022-12-31T08:22:26.058Z,82.97
2022-12-31T08:25:38.782Z,82.06
2022-12-31T08:28:57.152Z,81.63
2022-12-31T08:32:06.988Z,81.64
2022-12-31T08:35:22.659Z,81.37
2022-12-31T08:38:35.635Z,81.03
2022-12-31T08:41:43.334Z,80.80
2022-12-31T08:44:53.831Z,80.39
2022-12-31T08:48:04.420Z,79.80
2022-12-31T08:51:13.769Z,80.10
2022-12-31T08:54:19.947Z,80.30
2022-12-31T08:57:37.120Z,80.46
2022-12-31T09:00:41.555Z,80.27
2022-12-31T09:04:01.074Z,80.39
2022-12-31T09:07:05.590Z,80.16
2022-12-31T09:10:19.125Z,79.75
2022-12-31T09:13:37.086Z,79.09
2022-12-31T09:16:49.593Z,78.66
2022-12-31T09:19:54.633Z,78.84
2022-12-31T09:22:58.895Z,77.90
2022-12-31T09:26:15.287Z,77.71
2022-12-31T09:29:32.725Z,77.64
2022-12-31T09:32:48.548Z,77.61
2022-12-31T09:35:55.991Z,77.02
2022-12-31T09:39:08.247Z,76.72
2022-12-31T09:42:49.772Z,76.89
2022-12-31T09:46:19.255Z,76.22
2022-12-31T09:49:42.250Z,75.83
2022-12-31T09:53:13.319Z,75.69
2022-12-31T09:56:21.686Z,75.49
2022-12-31T09:59:36.335Z,75.29
2022-12-31T10:03:02.183Z,75.10
2022-12-31T10:06:17.620Z,74.73
2022-12-31T10:09:44.015Z,73.99
2022-12-31T10:13:42.945Z,74.01
2022-12-31T10:17:02.244Z,73.73
2022-12-31T10:20:35.938Z,73.54
2022-12-31T10:23:55.501Z,73.74
2022-12-31T10:27:14.104Z,73.35
2022-12-31T10:30:21.482Z,73.93
2022-12-31T10:33:42.611Z,73.92
2022-12-31T10:36:55.579Z,73.80
2022-12-31T10:40:12.911Z,74.05
2022-12-31T10:43:34.897Z,74.05
2022-12-31T10:47:12.258Z,73.74
2022-12-31T10:50:53.392Z,73.88
2022-12-31T10:54:26.246Z,74.01
2022-12-31T10:58:07.133Z,73.76
2022-12-31T11:01:19.592Z,73.22
2022-12-31T11:05:07.023Z,73.28
2022-12-31T11:08:37.053Z,73.28
2022-12-31T11:11:46.925Z,72.87
2022-12-31T11:15:13.682Z,72.75
2022-12-31T11:18:28.553Z,72.49
2022-12-31T11:21:59.537Z,72.18
2022-12-31T11:25:23.817Z,72.23
2022-12-31T11:29:05.398Z,71.54
2022-12-31T11:32:20.129Z,71.01
2022-12-31T11:35:39.050Z,70.78
2022-12-31T11:38:46.447Z,70.49
2022-12-31T11:41:55.293Z,70.43
2022-12-31T11:45:03.389Z,70.37
2022-12-31T11:48:32.413Z,70.37
2022-12-31T11:52:02.821Z,69.52
2022-12-31T11:55:23.316Z,69.58
2022-12-31T11:58:28.779Z,68.98
2022-12-31T12:01:34.371Z,68.86
2022-12-31T12:04:37.146Z,68.51
2022-12-31T12:07:41.183Z,67.76
2022-12-31T12:10:47.707Z,67.61
2022-12-31T12:13:50.413Z,66.72
2022-12-31T12:17:00.815Z,67.18
2022-12-31T12:20:17.320Z,66.80
2022-12-31T12:23:26.505Z,66.60
2022-12-31T12:26:37.021Z,66.46
2022-12-31T12:29:41.289Z,64.88
2022-12-31T12:32:52.696Z,64.87
2022-12-31T12:36:06.636Z,65.21
2022-12-31T12:39:21.646Z,64.54
2022-12-31T12:42:24.435Z,64.36
2022-12-31T12:45:30.158Z,64.83
2022-12-31T12:48:38.295Z,65.66
2022-12-31T12:52:05.941Z,65.93
2022-12-31T12:55:20.630Z,65.97
2022-12-31T12:58:51.804Z,66.16
2022-12-31T13:02:03.286Z,66.41
2022-12-31T13:05:27.715Z,66.77
2022-12-31T13:09:07.740Z,66.76
2022-12-31T13:12:19.684Z,66.63
2022-12-31T13:15:35.075Z,66.54
2022-12-31T13:18:52.066Z,66.81
2022-12-31T13:22:02.529Z,66.37
2022-12-31T13:25:20.308Z,66.41
2022-12-31T13:28:25.867Z,66.66
2022-12-31T13:31:33.247Z,66.53
2022-12-31T13:34:41.801Z,66.58
2022-12-31T13:37:46.515Z,66.83
2022-12-31T13:40:54.648Z,66.64
2022-12-31T13:44:06.221Z,67.13
2022-12-31T13:47:16.096Z,66.97
2022-12-31T13:50:23.152Z,67.16
2022-12-31T13:53:33.251Z,67.36
2022-12-31T13:56:40.994Z,67.55
2022-12-31T13:59:51.803Z,67.43
2022-12-31T14:03:07.441Z,67.87
2022-12-31T14:06:15.239Z,67.66
2022-12-31T14:09:23.015Z,67.76
2022-12-31T14:12:38.143Z,67.70
2022-12-31T14:15:49.522Z,67.81
2022-12-31T14:19:02.104Z,67.90
2022-12-31T14:22:14.239Z,67.95
2022-12-31T14:25:24.962Z,68.21
2022-12-31T14:28:33.872Z,68.85
2022-12-31T14:31:57.848Z,69.03
2022-12-31T14:35:18.205Z,68.94
2022-12-31T14:38:45.002Z,69.04
2022-12-31T14:42:03.811Z,69.12
2022-12-31T14:45:20.803Z,69.44
2022-12-31T14:48:47.655Z,68.95
2022-12-31T14:51:51.576Z,69.61
2022-12-31T14:55:35.167Z,70.03
2022-12-31T14:58:40.364Z,69.94
2022-12-31T15:01:46.261Z,69.90
2022-12-31T15:04:50.387Z,69.84
2022-12-31T15:08:18.643Z,69.63
2022-12-31T15:11:46.075Z,69.92
2022-12-31T15:15:10.824Z,70.17
2022-12-31T15:18:44.162Z,70.36
2022-12-31T15:22:04.533Z,70.04
2022-12-31T15:25:22.116Z,70.21
2022-12-31T15:28:33.841Z,69.86
2022-12-31T15:31:45.210Z,70.03
2022-12-31T15:34:47.924Z,70.39
2022-12-31T15:38:01.884Z,70.50
2022-12-31T15:41:17.254Z,70.73
2022-12-31T15:44:29.771Z,70.66
2022-12-31T15:47:37.782Z,70.76
2022-12-31T15:50:42.529Z,71.09
2022-12-31T15:53:52.962Z,70.67
2022-12-31T15:56:55.900Z,70.62
2022-12-31T16:00:00.295Z,70.59
2022-12-31T16:03:04.911Z,70.67
2022-12-31T16:06:12.473Z,70.68
2022-12-31T16:09:24.910Z,70.73
2022-12-31T16:12:33.702Z,70.73
2022-12-31T16:15:40.070Z,70.26
2022-12-31T16:18:44.710Z,70.51
2022-12-31T16:21:47.633Z,70.34
2022-12-31T16:25:29.089Z,70.63
2022-12-31T16:28:20.928Z,70.46
2022-12-31T16:31:26.017Z,70.47
2022-12-31T16:34:29.424Z,70.46
2022-12-31T16:37:32.108Z,70.60
2022-12-31T16:40:36.578Z,70.27
2022-12-31T16:43:40.938Z,70.04
2022-12-31T16:46:43.662Z,70.40
2022-12-31T16:49:48.689Z,70.25
2022-12-31T16:53:00.811Z,70.71
2022-12-31T16:56:21.781Z,70.38
2022-12-31T16:59:33.472Z,70.42
2022-12-31T17:02:40.076Z,70.79
2022-12-31T17:05:58.710Z,70.62
2022-12-31T17:09:20.648Z,70.24
2022-12-31T17:12:25.693Z,70.26
2022-12-31T17:15:38.901Z,70.63
2022-12-31T17:18:46.227Z,70.30
2022-12-31T17:21:51.892Z,70.28
2022-12-31T17:25:03.246Z,70.15
2022-12-31T17:28:20.234Z,69.59
2022-12-31T17:31:29.164Z,69.56
2022-12-31T17:34:34.818Z,69.00
2022-12-31T17:37:42.796Z,69.22
2022-12-31T17:40:51.225Z,68.81
2022-12-31T17:43:57.676Z,68.51
2022-12-31T17:47:00.367Z,68.62
2022-12-31T17:50:10.686Z,68.17
2022-12-31T17:53:13.840Z,68.13
2022-12-31T17:56:18.533Z,67.82
2022-12-31T17:59:29.526Z,67.16
2022-12-31T18:02:32.382Z,66.97
2022-12-31T18:05:35.539Z,67.38
2022-12-31T18:08:40.505Z,67.79
2022-12-31T18:11:43.999Z,67.66
2022-12-31T18:14:48.028Z,67.37
2022-12-31T18:18:05.291Z,66.71
2022-12-31T18:21:10.070Z,66.10
2022-12-31T18:24:30.170Z,65.86
2022-12-31T18:27:34.996Z,66.09
2022-12-31T18:30:47.004Z,65.56
2022-12-31T18:33:51.304Z,65.75
2022-12-31T18:36:54.396Z,65.67
2022-12-31T18:39:57.040Z,65.75
2022-12-31T18:43:07.292Z,65.84
2022-12-31T18:46:14.036Z,66.15
2022-12-31T18:49:16.748Z,66.61
2022-12-31T18:52:21.627Z,67.02
2022-12-31T18:55:37.544Z,67.21
2022-12-31T18:58:40.845Z,67.51
2022-12-31T19:01:44.921Z,66.89
2022-12-31T19:04:50.302Z,67.18
2022-12-31T19:07:53.105Z,67.09
2022-12-31T19:10:55.807Z,67.30
2022-12-31T19:13:58.613Z,66.90
2022-12-31T19:20:07.848Z,66.07
2022-12-31T19:23:16.765Z,65.46
2022-12-31T19:26:21.862Z,64.96
2022-12-31T19:29:26.124Z,64.56
2022-12-31T19:32:30.630Z,64.43
2022-12-31T19:35:35.611Z,64.06
2022-12-31T19:38:47.089Z,64.46
2022-12-31T19:41:58.411Z,64.33
2022-12-31T19:45:02.287Z,64.64
2022-12-31T19:48:06.678Z,64.37
2022-12-31T19:51:11.869Z,64.71
2022-12-31T19:54:14.820Z,65.01
2022-12-31T19:57:17.593Z,65.11
2022-12-31T20:00:21.281Z,65.06
2022-12-31T20:03:33.949Z,65.55
2022-12-31T20:06:36.669Z,65.43
2022-12-31T20:09:39.356Z,65.78
2022-12-31T20:12:44.516Z,65.85
2022-12-31T20:15:56.647Z,65.82
2022-12-31T20:19:03.353Z,66.40
2022-12-31T20:22:06.101Z,66.22
2022-12-31T20:25:13.937Z,66.40
2022-12-31T20:28:18.720Z,66.91
2022-12-31T20:31:26.810Z,67.13
2022-12-31T20:34:39.514Z,67.29
2022-12-31T20:37:42.205Z,67.92
2022-12-31T20:40:47.105Z,67.78
2022-12-31T20:44:15.333Z,68.42
2022-12-31T20:47:25.194Z,68.42
2022-12-31T20:50:45.105Z,68.89
2022-12-31T20:53:49.949Z,69.01
2022-12-31T20:56:52.645Z,69.37
2022-12-31T21:00:01.880Z,69.07
2022-12-31T21:03:14.585Z,69.36
2022-12-31T21:06:28.723Z,69.27
2022-12-31T21:09:38.602Z,69.33
2022-12-31T21:12:44.402Z,69.71
2022-12-31T21:15:48.589Z,69.60
2022-12-31T21:18:51.281Z,69.41
2022-12-31T21:22:07.050Z,69.78
2022-12-31T21:25:11.463Z,70.19
2022-12-31T21:28:17.230Z,70.03
2022-12-31T21:31:23.486Z,70.73
2022-12-31T21:38:30.053Z,71.48
2022-12-31T21:41:50.998Z,71.99
2022-12-31T21:44:53.858Z,72.69
2022-12-31T21:48:22.140Z,72.90
2022-12-31T21:51:27.077Z,73.30
2022-12-31T21:54:49.149Z,73.23
2022-12-31T21:58:24.800Z,73.63
2022-12-31T22:01:38.386Z,74.20
2022-12-31T22:05:01.996Z,74.28
2022-12-31T22:08:06.675Z,73.89
2022-12-31T22:11:11.977Z,74.11
2022-12-31T22:14:14.647Z,74.41
2022-12-31T22:17:17.307Z,74.19
2022-12-31T22:20:29.557Z,74.80
2022-12-31T22:23:33.238Z,74.88
2022-12-31T22:26:44.557Z,75.20
2022-12-31T22:29:49.073Z,75.63
2022-12-31T22:32:54.031Z,75.73
2022-12-31T22:36:02.238Z,75.82
2022-12-31T22:39:05.202Z,76.04
2022-12-31T22:42:09.265Z,76.01
2022-12-31T22:45:12.535Z,75.84
2022-12-31T22:48:15.209Z,76.37
2022-12-31T22:51:18.844Z,76.32
2022-12-31T22:54:21.625Z,76.14
2022-12-31T22:57:25.910Z,76.44
2022-12-31T23:00:39.471Z,76.25
2022-12-31T23:03:43.128Z,76.69
2022-12-31T23:06:46.058Z,76.64
2022-12-31T23:10:06.135Z,76.62
2022-12-31T23:13:27.597Z,76.60
2022-12-31T23:16:48.820Z,76.77
2022-12-31T23:20:09.088Z,76.77
2022-12-31T23:23:16.155Z,76.43
2022-12-31T23:26:18.811Z,76.62
2022-12-31T23:29:22.900Z,76.42
2022-12-31T23:32:25.612Z,76.50
2022-12-31T23:35:28.448Z,76.09
2022-12-31T23:38:31.189Z,76.11
2022-12-31T23:41:34.356Z,76.06
2022-12-31T23:44:38.428Z,76.56
2022-12-31T23:47:41.121Z,76.71
2022-12-31T23:50:49.211Z,76.65
2022-12-31T23:54:09.309Z,76.66
2022-12-31T23:57:12.075Z,76.51
